sensor_id;sensor_type;location;lat;lon;timestamp;pressure;altitude;pressure_sealevel;temperature;humidity
1480;BME280;732;51.698;4.886;2023-02-10T10:36:16;103904.19;;;2.50;100.00
1480;BME280;732;51.698;4.886;2023-02-10T10:38:50;103930.88;;;2.79;100.00
1480;BME280;732;51.698;4.886;2023-02-10T10:41:22;103911.06;;;3.01;100.00
1480;BME280;732;51.698;4.886;2023-02-10T10:43:54;103918.09;;;3.02;100.00
1480;BME280;732;51.698;4.886;2023-02-10T10:46:27;103891.47;;;3.26;100.00
1480;BME280;732;51.698;4.886;2023-02-10T10:48:56;103888.69;;;3.35;100.00
1480;BME280;732;51.698;4.886;2023-02-10T10:51:27;103903.47;;;3.67;100.00
1480;BME280;732;51.698;4.886;2023-02-10T10:53:57;103891.81;;;3.96;100.00
1480;BME280;732;51.698;4.886;2023-02-10T10:56:34;103893.44;;;4.05;100.00
1480;BME280;732;51.698;4.886;2023-02-10T10:59:11;103889.81;;;4.03;100.00
1480;BME280;732;51.698;4.886;2023-02-10T11:01:43;103889.16;;;3.84;100.00
1480;BME280;732;51.698;4.886;2023-02-10T11:04:15;103875.16;;;3.94;100.00
1480;BME280;732;51.698;4.886;2023-02-10T11:06:48;103872.94;;;3.98;100.00
1480;BME280;732;51.698;4.886;2023-02-10T11:09:23;103881.28;;;3.94;100.00
1480;BME280;732;51.698;4.886;2023-02-10T11:12:01;103857.44;;;4.11;100.00
1480;BME280;732;51.698;4.886;2023-02-10T11:14:38;103867.91;;;4.34;100.00
1480;BME280;732;51.698;4.886;2023-02-10T11:17:20;103859.66;;;4.28;100.00
1480;BME280;732;51.698;4.886;2023-02-10T11:19:58;103854.34;;;4.38;100.00
1480;BME280;732;51.698;4.886;2023-02-10T11:22:28;103838.50;;;4.47;100.00
1480;BME280;732;51.698;4.886;2023-02-10T11:25:00;103834.84;;;4.68;100.00
1480;BME280;732;51.698;4.886;2023-02-10T11:27:29;103833.41;;;4.60;100.00
1480;BME280;732;51.698;4.886;2023-02-10T11:29:58;103848.03;;;4.70;100.00
1480;BME280;732;51.698;4.886;2023-02-10T11:32:33;103834.72;;;5.01;100.00
1480;BME280;732;51.698;4.886;2023-02-10T11:35:04;103838.13;;;4.89;100.00
1480;BME280;732;51.698;4.886;2023-02-10T11:37:38;103813.75;;;4.88;100.00
1480;BME280;732;51.698;4.886;2023-02-10T11:40:20;103822.81;;;4.93;100.00
1480;BME280;732;51.698;4.886;2023-02-10T11:42:52;103795.34;;;4.98;100.00
1480;BME280;732;51.698;4.886;2023-02-10T11:45:24;103824.91;;;5.22;100.00
1480;BME280;732;51.698;4.886;2023-02-10T11:48:01;103820.94;;;5.51;100.00
1480;BME280;732;51.698;4.886;2023-02-10T11:50:33;103819.50;;;5.43;100.00
1480;BME280;732;51.698;4.886;2023-02-10T11:53:03;103802.25;;;5.70;100.00
1480;BME280;732;51.698;4.886;2023-02-10T11:55:40;103821.09;;;5.66;100.00
1480;BME280;732;51.698;4.886;2023-02-10T11:58:52;103811.22;;;5.87;100.00
1480;BME280;732;51.698;4.886;2023-02-10T12:01:44;103804.69;;;5.80;100.00
1480;BME280;732;51.698;4.886;2023-02-10T12:04:33;103819.59;;;5.94;100.00
1480;BME280;732;51.698;4.886;2023-02-10T12:07:11;103791.94;;;5.60;100.00
1480;BME280;732;51.698;4.886;2023-02-10T12:09:52;103817.56;;;5.90;100.00
1480;BME280;732;51.698;4.886;2023-02-10T12:12:30;103817.47;;;5.89;100.00
1480;BME280;732;51.698;4.886;2023-02-10T12:15:12;103805.97;;;5.74;100.00
1480;BME280;732;51.698;4.886;2023-02-10T12:17:55;103802.41;;;5.60;100.00
1480;BME280;732;51.698;4.886;2023-02-10T12:20:42;103774.16;;;5.54;100.00
1480;BME280;732;51.698;4.886;2023-02-10T12:23:37;103803.47;;;6.13;100.00
1480;BME280;732;51.698;4.886;2023-02-10T12:26:18;103766.72;;;6.10;100.00
1480;BME280;732;51.698;4.886;2023-02-10T12:29:00;103779.69;;;6.21;100.00
1480;BME280;732;51.698;4.886;2023-02-10T12:31:41;103768.50;;;6.24;100.00
1480;BME280;732;51.698;4.886;2023-02-10T12:34:46;103781.13;;;6.42;100.00
1480;BME280;732;51.698;4.886;2023-02-10T12:37:29;103765.03;;;6.36;100.00
1480;BME280;732;51.698;4.886;2023-02-10T12:40:27;103754.84;;;6.15;100.00
1480;BME280;732;51.698;4.886;2023-02-10T12:43:12;103776.47;;;6.51;100.00
1480;BME280;732;51.698;4.886;2023-02-10T12:45:47;103767.53;;;6.22;100.00
1480;BME280;732;51.698;4.886;2023-02-10T12:48:29;103755.13;;;6.06;100.00
1480;BME280;732;51.698;4.886;2023-02-10T12:51:16;103762.22;;;5.96;100.00
1480;BME280;732;51.698;4.886;2023-02-10T12:53:50;103754.59;;;5.99;100.00
1480;BME280;732;51.698;4.886;2023-02-10T12:56:24;103760.47;;;5.70;100.00
1480;BME280;732;51.698;4.886;2023-02-10T12:59:02;103737.47;;;5.40;100.00
1480;BME280;732;51.698;4.886;2023-02-10T13:01:37;103763.75;;;5.68;100.00
1480;BME280;732;51.698;4.886;2023-02-10T13:04:16;103758.09;;;5.86;100.00
1480;BME280;732;51.698;4.886;2023-02-10T13:06:51;103739.19;;;5.90;100.00
1480;BME280;732;51.698;4.886;2023-02-10T13:09:30;103754.66;;;6.25;100.00
1480;BME280;732;51.698;4.886;2023-02-10T13:12:12;103756.19;;;5.84;100.00
1480;BME280;732;51.698;4.886;2023-02-10T13:14:46;103760.56;;;6.09;100.00
1480;BME280;732;51.698;4.886;2023-02-10T13:17:16;103764.81;;;5.96;100.00
1480;BME280;732;51.698;4.886;2023-02-10T13:19:54;103752.75;;;5.85;100.00
1480;BME280;732;51.698;4.886;2023-02-10T13:22:39;103755.66;;;6.14;100.00
1480;BME280;732;51.698;4.886;2023-02-10T13:25:14;103762.50;;;6.12;100.00
1480;BME280;732;51.698;4.886;2023-02-10T13:27:55;103759.44;;;5.68;100.00
1480;BME280;732;51.698;4.886;2023-02-10T13:31:00;103756.59;;;5.52;100.00
1480;BME280;732;51.698;4.886;2023-02-10T13:33:43;103766.31;;;5.54;100.00
1480;BME280;732;51.698;4.886;2023-02-10T13:36:17;103739.00;;;5.49;100.00
1480;BME280;732;51.698;4.886;2023-02-10T13:38:59;103725.28;;;5.27;100.00
1480;BME280;732;51.698;4.886;2023-02-10T13:41:32;103756.94;;;5.70;100.00
1480;BME280;732;51.698;4.886;2023-02-10T13:44:26;103735.19;;;5.82;100.00
1480;BME280;732;51.698;4.886;2023-02-10T13:47:11;103728.63;;;6.13;100.00
1480;BME280;732;51.698;4.886;2023-02-10T13:49:50;103728.91;;;6.05;100.00
1480;BME280;732;51.698;4.886;2023-02-10T13:52:23;103698.81;;;5.85;100.00
1480;BME280;732;51.698;4.886;2023-02-10T13:54:57;103733.69;;;5.86;100.00
1480;BME280;732;51.698;4.886;2023-02-10T13:57:30;103717.03;;;5.46;100.00
1480;BME280;732;51.698;4.886;2023-02-10T14:00:14;103693.16;;;5.28;100.00
1480;BME280;732;51.698;4.886;2023-02-10T14:02:58;103693.59;;;5.34;100.00
1480;BME280;732;51.698;4.886;2023-02-10T14:05:29;103692.19;;;5.39;100.00
1480;BME280;732;51.698;4.886;2023-02-10T14:07:58;103706.63;;;5.59;100.00
1480;BME280;732;51.698;4.886;2023-02-10T14:10:33;103726.25;;;5.79;100.00
1480;BME280;732;51.698;4.886;2023-02-10T14:13:05;103719.69;;;6.10;100.00
1480;BME280;732;51.698;4.886;2023-02-10T14:15:39;103699.22;;;5.91;100.00
1480;BME280;732;51.698;4.886;2023-02-10T14:18:23;103713.13;;;6.16;100.00
1480;BME280;732;51.698;4.886;2023-02-10T14:20:59;103728.81;;;6.16;100.00
1480;BME280;732;51.698;4.886;2023-02-10T14:23:32;103721.88;;;6.17;100.00
1480;BME280;732;51.698;4.886;2023-02-10T14:26:04;103701.94;;;5.80;100.00
1480;BME280;732;51.698;4.886;2023-02-10T14:28:37;103678.91;;;5.74;100.00
1480;BME280;732;51.698;4.886;2023-02-10T14:31:11;103696.13;;;5.84;100.00
1480;BME280;732;51.698;4.886;2023-02-10T14:33:52;103706.97;;;5.90;100.00
1480;BME280;732;51.698;4.886;2023-02-10T14:36:21;103701.31;;;5.71;100.00
1480;BME280;732;51.698;4.886;2023-02-10T14:38:52;103681.44;;;5.73;100.00
1480;BME280;732;51.698;4.886;2023-02-10T14:41:22;103702.31;;;5.59;100.00
1480;BME280;732;51.698;4.886;2023-02-10T14:43:51;103689.78;;;5.80;100.00
1480;BME280;732;51.698;4.886;2023-02-10T14:46:23;103697.22;;;6.00;100.00
1480;BME280;732;51.698;4.886;2023-02-10T14:48:59;103688.81;;;6.17;100.00
1480;BME280;732;51.698;4.886;2023-02-10T14:51:30;103687.22;;;6.19;100.00
1480;BME280;732;51.698;4.886;2023-02-10T14:54:09;103671.41;;;6.05;100.00
1480;BME280;732;51.698;4.886;2023-02-10T14:56:37;103683.28;;;6.13;100.00
1480;BME280;732;51.698;4.886;2023-02-10T14:59:21;103692.41;;;6.06;100.00
1480;BME280;732;51.698;4.886;2023-02-10T15:01:50;103656.25;;;5.99;100.00
1480;BME280;732;51.698;4.886;2023-02-10T15:04:21;103665.97;;;6.02;100.00
1480;BME280;732;51.698;4.886;2023-02-10T15:06:55;103663.16;;;5.86;100.00
1480;BME280;732;51.698;4.886;2023-02-10T15:09:28;103675.13;;;5.95;100.00
1480;BME280;732;51.698;4.886;2023-02-10T15:12:00;103670.59;;;5.93;100.00
1480;BME280;732;51.698;4.886;2023-02-10T15:14:45;103679.34;;;5.93;100.00
1480;BME280;732;51.698;4.886;2023-02-10T15:17:16;103687.59;;;5.99;100.00
1480;BME280;732;51.698;4.886;2023-02-10T15:19:58;103679.44;;;5.82;100.00
1480;BME280;732;51.698;4.886;2023-02-10T15:22:36;103668.88;;;5.80;100.00
1480;BME280;732;51.698;4.886;2023-02-10T15:25:33;103695.97;;;6.20;100.00
1480;BME280;732;51.698;4.886;2023-02-10T15:28:21;103655.09;;;5.96;100.00
1480;BME280;732;51.698;4.886;2023-02-10T15:31:03;103657.03;;;5.85;100.00
1480;BME280;732;51.698;4.886;2023-02-10T15:33:36;103665.56;;;5.83;100.00
1480;BME280;732;51.698;4.886;2023-02-10T15:36:20;103687.78;;;6.02;100.00
1480;BME280;732;51.698;4.886;2023-02-10T15:38:52;103664.56;;;5.94;100.00
1480;BME280;732;51.698;4.886;2023-02-10T15:41:41;103656.25;;;5.99;100.00
1480;BME280;732;51.698;4.886;2023-02-10T15:44:34;103680.13;;;5.92;100.00
1480;BME280;732;51.698;4.886;2023-02-10T15:47:53;103658.03;;;6.00;100.00
1480;BME280;732;51.698;4.886;2023-02-10T15:50:22;103675.50;;;6.01;100.00
1480;BME280;732;51.698;4.886;2023-02-10T15:52:52;103683.25;;;5.87;100.00
1480;BME280;732;51.698;4.886;2023-02-10T15:55:24;103678.13;;;5.88;100.00
1480;BME280;732;51.698;4.886;2023-02-10T15:57:55;103665.19;;;5.77;100.00
1480;BME280;732;51.698;4.886;2023-02-10T16:00:26;103643.75;;;5.56;100.00
1480;BME280;732;51.698;4.886;2023-02-10T16:02:55;103687.97;;;6.05;100.00
1480;BME280;732;51.698;4.886;2023-02-10T16:05:26;103681.47;;;5.99;100.00
1480;BME280;732;51.698;4.886;2023-02-10T16:08:01;103678.94;;;5.87;100.00
1480;BME280;732;51.698;4.886;2023-02-10T16:10:31;103668.38;;;5.86;100.00
1480;BME280;732;51.698;4.886;2023-02-10T16:13:00;103671.59;;;5.82;100.00
1480;BME280;732;51.698;4.886;2023-02-10T16:15:29;103663.94;;;5.72;100.00
1480;BME280;732;51.698;4.886;2023-02-10T16:18:00;103660.22;;;5.68;100.00
1480;BME280;732;51.698;4.886;2023-02-10T16:20:32;103670.19;;;5.87;100.00
1480;BME280;732;51.698;4.886;2023-02-10T16:23:04;103676.63;;;5.79;100.00
1480;BME280;732;51.698;4.886;2023-02-10T16:25:32;103653.97;;;5.53;100.00
1480;BME280;732;51.698;4.886;2023-02-10T16:28:01;103670.59;;;5.80;100.00
1480;BME280;732;51.698;4.886;2023-02-10T16:30:30;103670.41;;;5.90;100.00
1480;BME280;732;51.698;4.886;2023-02-10T16:33:00;103667.38;;;5.84;100.00
1480;BME280;732;51.698;4.886;2023-02-10T16:35:28;103663.44;;;5.77;100.00
1480;BME280;732;51.698;4.886;2023-02-10T16:37:57;103658.94;;;5.75;100.00
1480;BME280;732;51.698;4.886;2023-02-10T16:40:29;103668.84;;;5.54;100.00
1480;BME280;732;51.698;4.886;2023-02-10T16:42:59;103659.84;;;5.37;100.00
1480;BME280;732;51.698;4.886;2023-02-10T16:45:31;103660.47;;;5.33;100.00
1480;BME280;732;51.698;4.886;2023-02-10T16:48:00;103652.13;;;5.26;100.00
1480;BME280;732;51.698;4.886;2023-02-10T16:50:32;103656.63;;;5.04;100.00
1480;BME280;732;51.698;4.886;2023-02-10T16:53:01;103649.97;;;5.07;100.00
1480;BME280;732;51.698;4.886;2023-02-10T16:55:32;103654.47;;;5.10;100.00
1480;BME280;732;51.698;4.886;2023-02-10T16:58:01;103669.97;;;5.20;100.00
1480;BME280;732;51.698;4.886;2023-02-10T17:00:30;103674.56;;;5.11;100.00
1480;BME280;732;51.698;4.886;2023-02-10T17:02:59;103665.63;;;5.07;100.00
1480;BME280;732;51.698;4.886;2023-02-10T17:05:28;103677.69;;;5.18;100.00
1480;BME280;732;51.698;4.886;2023-02-10T17:07:59;103681.78;;;5.15;100.00
1480;BME280;732;51.698;4.886;2023-02-10T17:10:29;103667.31;;;5.07;100.00
1480;BME280;732;51.698;4.886;2023-02-10T17:13:00;103689.16;;;5.20;100.00
1480;BME280;732;51.698;4.886;2023-02-10T17:15:29;103686.19;;;5.16;100.00
1480;BME280;732;51.698;4.886;2023-02-10T17:17:58;103678.66;;;5.07;100.00
1480;BME280;732;51.698;4.886;2023-02-10T17:20:30;103655.38;;;4.86;100.00
1480;BME280;732;51.698;4.886;2023-02-10T17:22:58;103681.31;;;4.96;100.00
1480;BME280;732;51.698;4.886;2023-02-10T17:25:30;103682.91;;;4.94;100.00
1480;BME280;732;51.698;4.886;2023-02-10T17:28:00;103675.75;;;4.91;100.00
1480;BME280;732;51.698;4.886;2023-02-10T17:30:30;103680.88;;;4.90;100.00
1480;BME280;732;51.698;4.886;2023-02-10T17:33:01;103685.63;;;4.95;100.00
1480;BME280;732;51.698;4.886;2023-02-10T17:35:29;103673.47;;;4.96;100.00
1480;BME280;732;51.698;4.886;2023-02-10T17:37:58;103690.78;;;5.07;100.00
1480;BME280;732;51.698;4.886;2023-02-10T17:40:43;103687.78;;;5.14;100.00
1480;BME280;732;51.698;4.886;2023-02-10T17:43:13;103689.88;;;5.06;100.00
1480;BME280;732;51.698;4.886;2023-02-10T17:45:41;103673.69;;;4.99;100.00
1480;BME280;732;51.698;4.886;2023-02-10T17:48:10;103676.81;;;4.82;100.00
1480;BME280;732;51.698;4.886;2023-02-10T17:50:38;103689.75;;;4.80;100.00
1480;BME280;732;51.698;4.886;2023-02-10T17:53:07;103698.66;;;4.95;100.00
1480;BME280;732;51.698;4.886;2023-02-10T17:55:40;103703.91;;;4.84;100.00
1480;BME280;732;51.698;4.886;2023-02-10T17:58:09;103680.25;;;4.69;100.00
1480;BME280;732;51.698;4.886;2023-02-10T18:00:40;103688.72;;;4.78;100.00
1480;BME280;732;51.698;4.886;2023-02-10T18:03:09;103692.91;;;4.88;100.00
1480;BME280;732;51.698;4.886;2023-02-10T18:05:39;103653.13;;;4.42;100.00
1480;BME280;732;51.698;4.886;2023-02-10T18:08:09;103678.81;;;4.61;100.00
1480;BME280;732;51.698;4.886;2023-02-10T18:10:39;103641.78;;;4.53;100.00
1480;BME280;732;51.698;4.886;2023-02-10T18:13:07;103686.94;;;4.77;100.00
1480;BME280;732;51.698;4.886;2023-02-10T18:15:36;103691.28;;;4.53;100.00
1480;BME280;732;51.698;4.886;2023-02-10T18:18:06;103707.19;;;4.45;100.00
1480;BME280;732;51.698;4.886;2023-02-10T18:20:35;103708.97;;;4.57;100.00
1480;BME280;732;51.698;4.886;2023-02-10T18:23:03;103704.41;;;4.55;100.00
1480;BME280;732;51.698;4.886;2023-02-10T18:25:32;103701.00;;;4.68;100.00
1480;BME280;732;51.698;4.886;2023-02-10T18:28:01;103692.66;;;4.60;100.00
1480;BME280;732;51.698;4.886;2023-02-10T18:30:30;103686.88;;;4.64;100.00
1480;BME280;732;51.698;4.886;2023-02-10T18:32:58;103695.00;;;4.68;100.00
1480;BME280;732;51.698;4.886;2023-02-10T18:35:29;103676.38;;;4.39;100.00
1480;BME280;732;51.698;4.886;2023-02-10T18:38:00;103684.50;;;4.44;100.00
1480;BME280;732;51.698;4.886;2023-02-10T18:40:32;103652.00;;;4.39;100.00
1480;BME280;732;51.698;4.886;2023-02-10T18:43:01;103696.03;;;4.59;100.00
1480;BME280;732;51.698;4.886;2023-02-10T18:45:30;103697.41;;;4.65;100.00
1480;BME280;732;51.698;4.886;2023-02-10T18:47:59;103686.53;;;4.59;100.00
1480;BME280;732;51.698;4.886;2023-02-10T18:50:29;103687.06;;;4.67;100.00
1480;BME280;732;51.698;4.886;2023-02-10T18:52:59;103678.66;;;4.71;100.00
1480;BME280;732;51.698;4.886;2023-02-10T18:55:29;103662.03;;;4.57;100.00
1480;BME280;732;51.698;4.886;2023-02-10T18:57:59;103659.72;;;4.49;100.00
1480;BME280;732;51.698;4.886;2023-02-10T19:00:29;103652.47;;;4.45;100.00
1480;BME280;732;51.698;4.886;2023-02-10T19:02:58;103661.16;;;4.45;100.00
1480;BME280;732;51.698;4.886;2023-02-10T19:05:28;103616.81;;;4.21;100.00
1480;BME280;732;51.698;4.886;2023-02-10T19:07:57;103665.91;;;4.51;100.00
1480;BME280;732;51.698;4.886;2023-02-10T19:10:25;103529.13;;;3.73;100.00
1480;BME280;732;51.698;4.886;2023-02-10T19:12:55;103672.84;;;4.50;100.00
1480;BME280;732;51.698;4.886;2023-02-10T19:15:23;103609.88;;;4.33;100.00
1480;BME280;732;51.698;4.886;2023-02-10T19:17:52;103560.91;;;3.93;100.00
1480;BME280;732;51.698;4.886;2023-02-10T19:20:21;103625.59;;;4.23;100.00
1480;BME280;732;51.698;4.886;2023-02-10T19:22:52;103652.53;;;4.58;100.00
1480;BME280;732;51.698;4.886;2023-02-10T19:25:20;103655.28;;;4.48;100.00
1480;BME280;732;51.698;4.886;2023-02-10T19:27:51;103659.63;;;4.24;100.00
1480;BME280;732;51.698;4.886;2023-02-10T19:30:20;103617.69;;;4.10;100.00
1480;BME280;732;51.698;4.886;2023-02-10T19:32:49;103627.81;;;4.28;100.00
1480;BME280;732;51.698;4.886;2023-02-10T19:35:18;103625.75;;;4.36;100.00
1480;BME280;732;51.698;4.886;2023-02-10T19:37:46;103629.50;;;4.28;100.00
1480;BME280;732;51.698;4.886;2023-02-10T19:40:17;103634.25;;;4.33;100.00
1480;BME280;732;51.698;4.886;2023-02-10T19:42:46;103500.53;;;3.50;100.00
1480;BME280;732;51.698;4.886;2023-02-10T19:45:15;103636.19;;;4.36;100.00
1480;BME280;732;51.698;4.886;2023-02-10T19:47:43;103646.91;;;4.29;100.00
1480;BME280;732;51.698;4.886;2023-02-10T19:50:12;103647.56;;;4.38;100.00
1480;BME280;732;51.698;4.886;2023-02-10T19:52:43;103617.13;;;4.14;100.00
1480;BME280;732;51.698;4.886;2023-02-10T19:55:11;103650.97;;;4.48;100.00
1480;BME280;732;51.698;4.886;2023-02-10T19:57:42;103607.28;;;4.33;100.00
1480;BME280;732;51.698;4.886;2023-02-10T20:00:14;103601.63;;;4.27;100.00
1480;BME280;732;51.698;4.886;2023-02-10T20:02:43;103661.06;;;4.80;100.00
1480;BME280;732;51.698;4.886;2023-02-10T20:05:11;103657.50;;;4.91;100.00
1480;BME280;732;51.698;4.886;2023-02-10T20:07:40;103632.47;;;4.57;100.00
1480;BME280;732;51.698;4.886;2023-02-10T20:10:09;103646.91;;;4.77;100.00
1480;BME280;732;51.698;4.886;2023-02-10T20:12:38;103626.81;;;4.51;100.00
1480;BME280;732;51.698;4.886;2023-02-10T20:15:09;103666.50;;;4.47;100.00
1480;BME280;732;51.698;4.886;2023-02-10T20:17:38;103677.03;;;4.48;100.00
1480;BME280;732;51.698;4.886;2023-02-10T20:20:07;103633.78;;;4.39;100.00
1480;BME280;732;51.698;4.886;2023-02-10T20:22:36;103684.94;;;4.61;100.00
1480;BME280;732;51.698;4.886;2023-02-10T20:25:05;103675.81;;;4.68;100.00
1480;BME280;732;51.698;4.886;2023-02-10T20:27:34;103523.31;;;3.89;100.00
1480;BME280;732;51.698;4.886;2023-02-10T20:30:06;103606.59;;;4.35;100.00
1480;BME280;732;51.698;4.886;2023-02-10T20:32:36;103660.88;;;4.77;100.00
1480;BME280;732;51.698;4.886;2023-02-10T20:35:05;103640.53;;;4.48;100.00
1480;BME280;732;51.698;4.886;2023-02-10T20:37:34;103664.00;;;4.48;100.00
1480;BME280;732;51.698;4.886;2023-02-10T20:40:02;103647.56;;;4.49;100.00
1480;BME280;732;51.698;4.886;2023-02-10T20:42:31;103650.44;;;4.29;100.00
1480;BME280;732;51.698;4.886;2023-02-10T20:45:00;103601.28;;;4.11;100.00
1480;BME280;732;51.698;4.886;2023-02-10T20:47:31;103618.34;;;4.42;100.00
1480;BME280;732;51.698;4.886;2023-02-10T20:50:01;103632.72;;;4.48;100.00
1480;BME280;732;51.698;4.886;2023-02-10T20:52:30;103514.75;;;3.79;100.00
1480;BME280;732;51.698;4.886;2023-02-10T20:54:59;103598.91;;;4.25;100.00
1480;BME280;732;51.698;4.886;2023-02-10T20:57:27;103638.50;;;4.56;100.00
1480;BME280;732;51.698;4.886;2023-02-10T20:59:56;103621.28;;;4.46;100.00
1480;BME280;732;51.698;4.886;2023-02-10T21:02:25;103575.13;;;4.21;100.00
1480;BME280;732;51.698;4.886;2023-02-10T21:04:54;103620.69;;;4.62;100.00
1480;BME280;732;51.698;4.886;2023-02-10T21:07:27;103590.78;;;4.45;100.00
1480;BME280;732;51.698;4.886;2023-02-10T21:09:57;103612.78;;;4.49;100.00
1480;BME280;732;51.698;4.886;2023-02-10T21:12:25;103608.16;;;4.45;100.00
1480;BME280;732;51.698;4.886;2023-02-10T21:14:54;103574.41;;;4.23;100.00
1480;BME280;732;51.698;4.886;2023-02-10T21:17:22;103630.69;;;4.44;100.00
1480;BME280;732;51.698;4.886;2023-02-10T21:19:52;103622.97;;;4.46;100.00
1480;BME280;732;51.698;4.886;2023-02-10T21:22:21;103591.72;;;4.23;100.00
1480;BME280;732;51.698;4.886;2023-02-10T21:24:51;103578.41;;;4.18;100.00
1480;BME280;732;51.698;4.886;2023-02-10T21:27:20;103628.38;;;4.60;100.00
1480;BME280;732;51.698;4.886;2023-02-10T21:29:51;103618.22;;;4.52;100.00
1480;BME280;732;51.698;4.886;2023-02-10T21:32:20;103618.19;;;4.63;100.00
1480;BME280;732;51.698;4.886;2023-02-10T21:34:49;103603.97;;;4.47;100.00
1480;BME280;732;51.698;4.886;2023-02-10T21:37:17;103635.06;;;4.57;100.00
1480;BME280;732;51.698;4.886;2023-02-10T21:39:46;103645.28;;;4.54;100.00
1480;BME280;732;51.698;4.886;2023-02-10T21:42:16;103637.16;;;4.38;100.00
1480;BME280;732;51.698;4.886;2023-02-10T21:44:45;103624.81;;;4.24;100.00
1480;BME280;732;51.698;4.886;2023-02-10T21:47:14;103672.84;;;4.50;100.00
1480;BME280;732;51.698;4.886;2023-02-10T21:49:42;103663.53;;;4.54;100.00
1480;BME280;732;51.698;4.886;2023-02-10T21:52:11;103615.06;;;4.21;100.00
1480;BME280;732;51.698;4.886;2023-02-10T21:54:40;103600.28;;;4.32;100.00
1480;BME280;732;51.698;4.886;2023-02-10T21:57:11;103653.22;;;4.55;100.00
1480;BME280;732;51.698;4.886;2023-02-10T21:59:42;103595.50;;;4.15;100.00
1480;BME280;732;51.698;4.886;2023-02-10T22:02:13;103624.28;;;4.05;100.00
1480;BME280;732;51.698;4.886;2023-02-10T22:04:42;103634.34;;;4.12;100.00
1480;BME280;732;51.698;4.886;2023-02-10T22:07:11;103665.72;;;4.36;100.00
1480;BME280;732;51.698;4.886;2023-02-10T22:09:39;103668.56;;;4.28;100.00
1480;BME280;732;51.698;4.886;2023-02-10T22:12:07;103667.06;;;4.20;100.00
1480;BME280;732;51.698;4.886;2023-02-10T22:14:36;103657.56;;;4.09;100.00
1480;BME280;732;51.698;4.886;2023-02-10T22:17:06;103659.03;;;4.17;100.00
1480;BME280;732;51.698;4.886;2023-02-10T22:19:35;103683.81;;;4.12;100.00
1480;BME280;732;51.698;4.886;2023-02-10T22:22:04;103680.91;;;4.19;100.00
1480;BME280;732;51.698;4.886;2023-02-10T22:24:33;103643.44;;;3.94;100.00
1480;BME280;732;51.698;4.886;2023-02-10T22:27:01;103667.31;;;3.88;100.00
1480;BME280;732;51.698;4.886;2023-02-10T22:29:31;103660.97;;;3.96;100.00
1480;BME280;732;51.698;4.886;2023-02-10T22:32:03;103576.31;;;3.43;100.00
1480;BME280;732;51.698;4.886;2023-02-10T22:34:33;103680.91;;;4.07;100.00
1480;BME280;732;51.698;4.886;2023-02-10T22:37:02;103643.88;;;3.88;100.00
1480;BME280;732;51.698;4.886;2023-02-10T22:39:30;103677.94;;;4.14;100.00
1480;BME280;732;51.698;4.886;2023-02-10T22:41:59;103679.41;;;4.22;100.00
1480;BME280;732;51.698;4.886;2023-02-10T22:44:27;103629.28;;;4.13;100.00
1480;BME280;732;51.698;4.886;2023-02-10T22:46:57;103637.97;;;4.25;100.00
1480;BME280;732;51.698;4.886;2023-02-10T22:49:28;103664.69;;;4.46;100.00
1480;BME280;732;51.698;4.886;2023-02-10T22:51:58;103680.19;;;4.56;100.00
1480;BME280;732;51.698;4.886;2023-02-10T22:54:26;103656.09;;;4.24;100.00
1480;BME280;732;51.698;4.886;2023-02-10T22:56:54;103660.38;;;4.23;100.00
1480;BME280;732;51.698;4.886;2023-02-10T22:59:23;103637.84;;;4.12;100.00
1480;BME280;732;51.698;4.886;2023-02-10T23:01:52;103658.03;;;4.26;100.00
1480;BME280;732;51.698;4.886;2023-02-10T23:04:23;103670.22;;;4.50;100.00
1480;BME280;732;51.698;4.886;2023-02-10T23:06:52;103643.06;;;4.24;100.00
1480;BME280;732;51.698;4.886;2023-02-10T23:09:22;103653.94;;;4.41;100.00
1480;BME280;732;51.698;4.886;2023-02-10T23:11:51;103670.47;;;4.42;100.00
1480;BME280;732;51.698;4.886;2023-02-10T23:14:21;103661.88;;;4.43;100.00
1480;BME280;732;51.698;4.886;2023-02-10T23:16:50;103640.69;;;4.38;100.00
1480;BME280;732;51.698;4.886;2023-02-10T23:19:20;103627.22;;;4.21;100.00
1480;BME280;732;51.698;4.886;2023-02-10T23:21:49;103617.00;;;4.24;100.00
1480;BME280;732;51.698;4.886;2023-02-10T23:24:18;103658.13;;;4.39;100.00
1480;BME280;732;51.698;4.886;2023-02-10T23:26:48;103644.00;;;4.24;100.00
1480;BME280;732;51.698;4.886;2023-02-10T23:29:17;103652.78;;;4.38;100.00
1480;BME280;732;51.698;4.886;2023-02-10T23:31:46;103651.28;;;4.53;100.00
1480;BME280;732;51.698;4.886;2023-02-10T23:34:14;103626.53;;;4.35;100.00
1480;BME280;732;51.698;4.886;2023-02-10T23:36:43;103596.84;;;4.21;100.00
1480;BME280;732;51.698;4.886;2023-02-10T23:39:13;103631.06;;;4.37;100.00
1480;BME280;732;51.698;4.886;2023-02-10T23:41:42;103581.22;;;4.10;100.00
1480;BME280;732;51.698;4.886;2023-02-10T23:44:14;103632.66;;;4.35;100.00
1480;BME280;732;51.698;4.886;2023-02-10T23:46:43;103609.31;;;4.14;100.00
1480;BME280;732;51.698;4.886;2023-02-10T23:49:11;103619.16;;;4.41;100.00
1480;BME280;732;51.698;4.886;2023-02-10T23:51:40;103631.16;;;4.39;100.00
1480;BME280;732;51.698;4.886;2023-02-10T23:54:09;103630.25;;;4.15;100.00
1480;BME280;732;51.698;4.886;2023-02-10T23:56:37;103622.69;;;4.18;100.00
1480;BME280;732;51.698;4.886;2023-02-10T23:59:06;103623.03;;;4.11;100.00
